Shenley AV, United Kingdom
Current Conditions -  °F | °C
As of 4:50 AM on Wednesday 26 Nov 2014 (Local Time) from EGWU Reporting Station
Broken Clouds Broken Clouds  
Wind Chill: 44°   Ceiling: 1800
Heat Index: 46°   Visibility: 6mi
Dew Point: 45°   Wind: 6mph
Humidity: 93%   Direction: 60°ENE
Pressure: 29.88"   Gusts: NA
Location:  51.69°N, 0.28°W
Report Text: EGWU 260450Z AUTO 06005KT 9000 // SCT011/// BKN018/// 08/07 Q1012
Loading
Personal Weather Stations






























Interactive Weather Map New forecast layout! Learn more

10-Day Weather Forecast

Advertisements
Track Severe Weather on mobile